Data for 07/16/2016

Time Sea-Level Adjusted Pressure Absolute Pressure Temperature Relative Humidity Dew Point   
(mb) (inHg) (mb) (inHg) (C) (F) (%) (C) (F)
00:05 1017 30.03 846 24.98 14.5 58 66 8.3 46.9
00:10 1017 30.03 846 24.98 14.4 57.8 67 8.3 46.9
00:15 1017 30.03 846 24.98 14.3 57.7 67 8.3 46.9
00:20 1017 30.03 846 24.98 14.2 57.6 67 8.3 47
00:25 1017 30.03 846 24.98 14.2 57.6 67 8.3 46.9
00:30 1017 30.03 846 24.98 14.2 57.6 67 8.3 46.9
00:35 1017 30.03 846 24.98 14.2 57.5 68 8.4 47
00:40 1017 30.03 846 24.98 14.2 57.5 68 8.3 47
00:45 1017 30.03 846 24.98 14.2 57.5 67 8.2 46.7
00:50 1017 30.03 846 24.98 14.3 57.7 67 8.3 46.9
00:55 1017 30.03 846 24.98 14.1 57.4 68 8.3 46.9
01:00 1017 30.03 846 24.98 14.1 57.3 68 8.4 47.1
01:05 1017 30.03 846 24.98 14 57.2 69 8.4 47.1
01:10 1017 30.03 846 24.98 14 57.1 69 8.4 47
01:15 1017 30.03 846 24.98 14 57.1 69 8.4 47
01:20 1017 30.03 846 24.98 13.9 57.1 69 8.4 47.1
01:25 1017 30.03 846 24.98 13.9 57 69 8.4 47.1
01:30 1017 30.03 846 24.98 13.9 56.9 69 8.4 47.1
01:35 1017 30.03 846 24.98 13.8 56.8 70 8.4 47.2
01:40 1017 30.03 846 24.98 13.7 56.7 70 8.4 47.1
01:45 1017 30.03 846 24.98 13.7 56.6 70 8.4 47.1
01:50 1017 30.03 846 24.98 13.7 56.6 70 8.3 47
01:55 1017 30.03 846 24.98 13.7 56.7 70 8.3 46.9
02:00 1017 30.03 846 24.98 13.7 56.6 70 8.3 47
02:05 1017 30.03 846 24.98 13.5 56.4 71 8.3 47
02:10 1017 30.03 846 24.98 13.5 56.2 71 8.3 47
02:15 1017 30.03 846 24.98 13.3 55.9 72 8.4 47.1
02:20 1017 30.03 846 24.98 13.1 55.5 73 8.4 47.1
02:25 1017 30.03 846 24.98 13 55.4 73 8.4 47
02:30 1017 30.03 846 24.98 12.9 55.2 74 8.3 47
02:35 1017 30.03 846 24.98 12.9 55.1 74 8.3 46.9
02:40 1017 30.03 846 24.98 12.8 55.1 74 8.3 46.9
02:45 1017 30.03 846 24.98 12.8 55.1 74 8.3 46.9
02:50 1017 30.03 846 24.98 12.8 55.1 74 8.2 46.8
02:55 1017 30.03 846 24.98 12.8 55 74 8.3 46.9
03:00 1017 30.03 846 24.98 12.8 55 74 8.2 46.8
03:05 1017 30.03 846 24.98 12.8 55 73 8.1 46.6
03:10 1017 30.03 846 24.98 12.9 55.2 73 8.2 46.7
03:15 1017 30.03 846 24.98 12.9 55.2 73 8.3 46.9
03:20 1017 30.03 846 24.98 12.9 55.1 73 8.1 46.6
03:25 1017 30.03 846 24.98 12.9 55.1 73 8.1 46.6
03:30 1017 30.03 846 24.98 12.9 55.2 73 8.2 46.7
03:35 1017 30.03 846 24.98 12.8 55.1 73 8.1 46.6
03:40 1017 30.03 846 24.98 12.8 55 74 8.3 46.9
03:45 1017 30.03 846 24.98 12.6 54.7 75 8.3 47
03:50 1017 30.03 846 24.98 12.4 54.4 76 8.3 47
03:55 1017 30.03 846 24.98 12.2 54 73 7.5 45.5
04:00 1017 30.03 846 24.98 11.8 53.3 74 7.4 45.2
04:05 1017 30.03 846 24.98 11.6 52.8 74 7.2 44.9
04:10 1017 30.03 846 24.98 11.2 52.1 75 7 44.6
04:15 1017 30.03 846 24.98 11 51.8 76 7 44.6
04:20 1017 30.03 846 24.98 10.9 51.7 76 7 44.6
04:25 1017 30.03 846 24.98 10.9 51.6 77 7.1 44.7
04:30 1017 30.03 846 24.98 10.7 51.2 77 6.9 44.4
04:35 1017 30.03 846 24.98 10.7 51.2 77 6.8 44.2
04:40 1017 30.03 846 24.98 10.6 51.1 79 7.1 44.7
04:45 1017 30.03 846 24.98 10.9 51.5 77 6.9 44.5
04:50 1017 30.03 846 24.98 10.9 51.6 76 7 44.5
04:55 1017 30.03 846 24.98 10.7 51.2 78 6.9 44.5
05:00 1017 30.03 846 24.98 10.5 50.9 78 6.9 44.3
05:05 1017 30.03 847 25.01 10.6 51.2 77 6.8 44.3
05:10 1017 30.03 847 25.01 10.9 51.5 76 6.9 44.4
05:15 1017 30.03 847 25.01 10.9 51.6 76 6.9 44.3
05:20 1017 30.03 847 25.01 10.8 51.4 76 6.6 44
05:25 1017 30.03 847 25.01 10.8 51.4 75 6.6 43.8
05:30 1017 30.03 847 25.01 10.9 51.6 75 6.6 43.9
05:35 1017 30.03 847 25.01 10.7 51.3 75 6.5 43.8
05:40 1017 30.03 847 25.01 10.7 51.3 74 6.4 43.5
05:45 1017 30.03 847 25.01 10.8 51.4 74 6.3 43.3
05:50 1018 30.06 847 25.01 10.9 51.7 73 6.4 43.5
05:55 1018 30.06 847 25.01 11.2 52.1 73 6.5 43.7
06:00 1018 30.06 847 25.01 11.4 52.5 73 6.7 44.1
06:05 1018 30.06 847 25.01 11.6 52.8 72 6.7 44
06:10 1018 30.06 847 25.01 11.6 52.9 72 6.7 44
06:15 1018 30.06 847 25.01 11.8 53.3 71 6.9 44.3
06:20 1018 30.06 847 25.01 12.1 53.8 71 7 44.6
06:25 1018 30.06 847 25.01 12.2 54 70 7 44.7
06:30 1018 30.06 847 25.01 12.2 54 70 6.9 44.5
06:35 1018 30.06 847 25.01 12.4 54.3 70 7.1 44.7
06:40 1018 30.06 847 25.01 12.8 55.1 67 6.8 44.3
06:45 1018 30.06 847 25.01 13.4 56.1 65 7.1 44.8
06:50 1018 30.06 847 25.01 13.9 57.1 60 6.4 43.6
06:55 1018 30.06 847 25.01 14.5 58.1 59 6.6 43.8
07:00 1018 30.06 847 25.01 14.7 58.4 58 6.6 44
07:05 1018 30.06 847 25.01 14.3 57.8 59 6.6 43.8
07:10 1018 30.06 847 25.01 14.4 57.9 63 7.5 45.6
07:15 1018 30.06 847 25.01 13.8 56.9 66 7.6 45.6
07:20 1018 30.06 847 25.01 14 57.3 63 7.3 45.1
07:25 1018 30.06 847 25.01 14.3 57.8 63 7.4 45.4
07:30 1018 30.06 847 25.01 14.4 58 64 7.8 46
07:35 1018 30.06 847 25.01 14.4 57.9 61 7 44.7
07:40 1018 30.06 847 25.01 14.5 58.1 58 6.5 43.7
07:45 1018 30.06 847 25.01 14.8 58.6 58 6.7 44.1
07:50 1018 30.06 847 25.01 14.9 58.9 57 6.6 43.9
07:55 1018 30.06 847 25.01 15.7 60.2 55 6.9 44.4
08:00 1018 30.06 847 25.01 15.4 59.6 57 7 44.5
08:05 1018 30.06 847 25.01 15.3 59.6 57 7 44.6
08:10 1018 30.06 847 25.01 15.6 60.1 55 6.8 44.2
08:15 1018 30.06 847 25.01 15.8 60.4 55 7 44.6
08:20 1018 30.06 847 25.01 15.6 60.1 55 6.8 44.2
08:25 1018 30.06 847 25.01 16.4 61.5 52 6.6 43.9
08:30 1018 30.06 847 25.01 16.8 62.2 53 7.2 45
08:35 1018 30.06 847 25.01 16.1 61 53 6.7 44.1
08:40 1018 30.06 847 25.01 16.8 62.2 52 6.9 44.5
08:45 1018 30.06 847 25.01 17.5 63.5 50 7 44.6
08:50 1018 30.06 847 25.01 17.6 63.6 51 7.6 45.6
08:55 1018 30.06 847 25.01 17.2 62.9 50 6.8 44.3
09:00 1018 30.06 847 25.01 17.2 63 52 7.3 45.2
09:05 1018 30.06 847 25.01 17.8 64.1 50 7.3 45.2
09:10 1018 30.06 847 25.01 18 64.4 49 7.4 45.3
09:15 1018 30.06 847 25.01 18.5 65.4 48 7.4 45.2
09:20 1018 30.06 847 25.01 18.3 65 48 7.3 45.2
09:25 1018 30.06 847 25.01 17.8 64.1 49 7.1 44.7
09:30 1018 30.06 847 25.01 18.7 65.6 48 7.6 45.7
09:35 1018 30.06 847 25.01 18.9 65.9 48 7.8 46
09:40 1018 30.06 847 25.01 19 66.2 48 7.9 46.2
09:45 1017 30.03 847 25.01 19.2 66.5 44 6.8 44.3
09:50 1018 30.06 847 25.01 19.2 66.6 44 6.8 44.2
09:55 1018 30.06 847 25.01 18.9 65.9 45 6.8 44.2
10:00 1018 30.06 847 25.01 19.2 66.5 44 6.7 44.1
10:05 1018 30.06 847 25.01 19.6 67.2 43 7 44.5
10:10 1018 30.06 847 25.01 19.9 67.8 41 6.2 43.2
10:15 1018 30.06 847 25.01 19.5 67.1 41 6.2 43.2
10:20 1018 30.06 847 25.01 19.5 67 43 6.7 44
10:25 1017 30.03 847 25.01 20 68 42 6.8 44.2
10:30 1017 30.03 847 25.01 20 68.1 41 6.5 43.7
10:35 1017 30.03 847 25.01 19.8 67.7 42 6.7 44
10:40 1017 30.03 847 25.01 19.7 67.5 42 6.5 43.7
10:45 1017 30.03 846 24.98 20 68 38 5.6 42.1
10:50 1017 30.03 846 24.98 19.8 67.7 39 5.6 42
10:55 1017 30.03 846 24.98 20.1 68.2 36 4.6 40.3
11:00 1017 30.03 846 24.98 20.9 69.5 35 5.1 41.1
11:05 1017 30.03 846 24.98 20.6 69 38 5.8 42.4
11:10 1017 30.03 846 24.98 20.7 69.2 38 6.1 43
11:15 1017 30.03 846 24.98 21.1 70.1 39 6.8 44.2
11:20 1017 30.03 846 24.98 20.2 68.4 42 7 44.5
11:25 1017 30.03 846 24.98 20.3 68.5 39 6 42.7
11:30 1017 30.03 846 24.98 20.6 69 37 5.5 42
11:35 1017 30.03 846 24.98 20.7 69.2 40 6.7 44.1
11:40 1017 30.03 846 24.98 20.7 69.3 40 6.8 44.3
11:45 1017 30.03 846 24.98 21.6 70.9 35 5.7 42.2
11:50 1017 30.03 846 24.98 21 69.8 40 7.1 44.8
11:55 1017 30.03 846 24.98 20.5 68.9 39 6.1 42.9
12:00 1017 30.03 846 24.98 20.9 69.7 36 5.6 42
12:05 1017 30.03 846 24.98 21.2 70.2 36 5.9 42.7
12:10 1017 30.03 846 24.98 21.7 71 36 6 42.7
12:15 1017 30.03 846 24.98 22 71.5 35 5.8 42.4
12:20 1017 30.03 846 24.98 22 71.6 35 6 42.7
12:25 1017 30.03 846 24.98 22.1 71.7 33 5.3 41.6
12:30 1017 30.03 846 24.98 22.5 72.5 33 5.4 41.7
12:35 1017 30.03 846 24.98 21.6 70.9 35 5.7 42.3
12:40 1017 30.03 846 24.98 21.2 70.2 34 5.1 41.2
12:45 1017 30.03 846 24.98 21.8 71.2 32 4.7 40.4
12:50 1017 30.03 846 24.98 21.6 71 33 4.7 40.4
12:55 1017 30.03 846 24.98 22.1 71.7 32 4.8 40.7
13:00 1017 30.03 846 24.98 22.5 72.5 31 4.8 40.6
13:05 1017 30.03 846 24.98 22.5 72.5 31 4.9 40.9
13:10 1017 30.03 846 24.98 22.5 72.6 32 5.1 41.2
13:15 1017 30.03 846 24.98 23.1 73.6 31 5.3 41.6
13:20 1017 30.03 846 24.98 22.8 73.1 31 4.8 40.6
13:25 1017 30.03 846 24.98 22.6 72.7 31 4.9 40.8
13:30 1017 30.03 846 24.98 22.6 72.6 31 4.9 40.9
13:35 1017 30.03 846 24.98 22.6 72.7 30 4.3 39.7
13:40 1017 30.03 846 24.98 22.5 72.4 31 4.8 40.6
13:45 1017 30.03 846 24.98 23 73.4 30 4.5 40.1
13:50 1017 30.03 846 24.98 22.9 73.2 30 4.7 40.4
13:55 1017 30.03 846 24.98 23.3 74 30 4.9 40.9
14:00 1016 30 846 24.98 23.3 73.9 30 4.9 40.8
14:05 1016 30 846 24.98 23.5 74.3 30 5 41
14:10 1016 30 846 24.98 23.6 74.4 29 4.6 40.2
14:15 1016 30 845 24.95 23.6 74.5 30 5.1 41.2
14:20 1016 30 845 24.95 23.3 74 30 5.1 41.3
14:25 1016 30 845 24.95 22.9 73.2 28 3.9 39
14:30 1016 30 845 24.95 22.9 73.2 29 4.2 39.6
14:35 1016 30 845 24.95 23.4 74.1 27 3.7 38.7
14:40 1016 30 845 24.95 24 75.2 27 4 39.3
14:45 1016 30 845 24.95 24.3 75.7 25 3 37.5
14:50 1016 30 845 24.95 24.2 75.6 25 3.3 38
14:55 1016 30 845 24.95 24.4 76 25 3.1 37.6
15:00 1016 30 845 24.95 24.4 75.8 25 3.3 37.9
15:05 1016 30 845 24.95 24.1 75.4 26 3.7 38.6
15:10 1016 30 845 24.95 24.2 75.5 24 2.7 36.9
15:15 1016 30 845 24.95 24.7 76.4 22 1.8 35.2
15:20 1016 30 845 24.95 24.4 75.9 22 1.4 34.6
15:25 1016 30 845 24.95 24.4 75.9 22 1.3 34.3
15:30 1016 30 845 24.95 24.3 75.8 23 2.1 35.7
15:35 1016 30 845 24.95 24.1 75.4 23 1.8 35.2
15:40 1016 30 845 24.95 24.7 76.4 22 1.6 35
15:45 1016 30 845 24.95 24.5 76 23 2.5 36.5
15:50 1016 30 845 24.95 24 75.3 23 2.1 35.8
15:55 1016 30 845 24.95 24 75.1 23 1.9 35.5
16:00 1016 30 845 24.95 24 75.2 22 1.1 34.1
16:05 1016 30 845 24.95 24.2 75.5 22 1.5 34.7
16:10 1016 30 845 24.95 24.4 76 22 1.5 34.8
16:15 1016 30 845 24.95 24.4 75.9 23 2.1 35.9
16:20 1016 30 845 24.95 24.5 76.2 22 1.4 34.5
16:25 1016 30 845 24.95 24.6 76.3 21 1.3 34.4
16:30 1016 30 845 24.95 24.6 76.2 22 1.8 35.3
16:35 1016 30 845 24.95 24.7 76.4 22 1.9 35.5
16:40 1016 30 845 24.95 24.2 75.6 22 1.7 35
16:45 1016 30 845 24.95 23.4 74.2 24 2.2 35.9
16:50 1016 30 845 24.95 24.2 75.5 23 2.1 35.8
16:55 1016 30 845 24.95 24.2 75.6 22 1.5 34.6
17:00 1016 30 845 24.95 24.5 76 21 1.3 34.3
17:05 1016 30 845 24.95 24.4 75.9 22 1.8 35.2
17:10 1016 30 845 24.95 24.1 75.3 22 1.5 34.7
17:15 1016 30 845 24.95 24.4 75.9 23 2.2 36
17:20 1016 30 845 24.95 24.3 75.7 24 2.7 36.9
17:25 1016 30 845 24.95 24.1 75.3 25 3 37.4
17:30 1016 30 845 24.95 23.4 74 26 3.2 37.7
17:35 1016 30 845 24.95 23.6 74.4 25 2.4 36.3
17:40 1016 30 845 24.95 23.4 74.2 26 2.9 37.2
17:45 1016 30 845 24.95 23.6 74.4 26 2.9 37.3
17:50 1016 30 845 24.95 23 73.4 26 3 37.3
17:55 1016 30 845 24.95 23 73.4 26 2.7 36.9
18:00 1016 30 845 24.95 23 73.3 26 2.7 36.8
18:05 1016 30 845 24.95 23 73.3 26 2.8 37.1
18:10 1016 30 846 24.98 22.8 73.1 27 2.9 37.3
18:15 1016 30 846 24.98 23.2 73.7 26 2.8 37
18:20 1016 30 846 24.98 22.9 73.2 27 3.2 37.7
18:25 1016 30 846 24.98 22.6 72.6 28 3.5 38.3
18:30 1016 30 846 24.98 22.4 72.4 28 3.1 37.6
18:35 1016 30 846 24.98 22 71.6 29 3.2 37.7
18:40 1016 30 846 24.98 22.1 71.7 28 2.8 37
18:45 1016 30 846 24.98 22 71.6 28 3 37.4
18:50 1016 30 846 24.98 22 71.6 27 2.5 36.5
18:55 1016 30 846 24.98 22 71.6 28 3 37.4
19:00 1017 30.03 846 24.98 22 71.6 28 2.7 36.9
19:05 1017 30.03 846 24.98 21.8 71.3 28 2.5 36.6
19:10 1017 30.03 846 24.98 21.6 70.9 27 2.2 35.9
19:15 1017 30.03 846 24.98 21.5 70.8 28 2.3 36.1
19:20 1017 30.03 846 24.98 21.4 70.6 28 2.2 35.9
19:25 1017 30.03 846 24.98 21.3 70.4 28 2.2 36
19:30 1017 30.03 846 24.98 21.2 70.2 29 2.5 36.5
19:35 1017 30.03 846 24.98 21.1 70 29 2.3 36.2
19:40 1017 30.03 846 24.98 21 69.8 30 2.7 36.9
19:45 1017 30.03 846 24.98 20.9 69.6 30 3 37.4
19:50 1017 30.03 846 24.98 20.7 69.3 31 3.3 37.9
19:55 1017 30.03 846 24.98 20.6 69 32 3.4 38.2
20:00 1017 30.03 846 24.98 20.4 68.6 32 3.3 38
20:05 1017 30.03 846 24.98 20.2 68.4 32 3.3 38
20:10 1017 30.03 846 24.98 20.1 68.2 32 3 37.4
20:15 1017 30.03 846 24.98 19.5 67.1 33 2.9 37.3
20:20 1017 30.03 847 25.01 19.3 66.7 35 3.4 38.2
20:25 1017 30.03 847 25.01 19 66.3 39 5 41
20:30 1018 30.06 847 25.01 18.8 65.8 41 5.3 41.5
20:35 1018 30.06 847 25.01 18.9 66 40 5.3 41.5
20:40 1018 30.06 847 25.01 18.8 65.9 41 5.4 41.7
20:45 1018 30.06 847 25.01 18.8 65.8 41 5.4 41.8
20:50 1018 30.06 847 25.01 18.6 65.4 41 5.3 41.5
20:55 1018 30.06 847 25.01 18.2 64.7 43 5.5 41.9
21:00 1018 30.06 847 25.01 17.6 63.7 45 5.8 42.4
21:05 1018 30.06 847 25.01 17.3 63.1 48 6.2 43.1
21:10 1018 30.06 847 25.01 17.1 62.8 49 6.5 43.7
21:15 1018 30.06 847 25.01 17 62.5 50 6.6 43.9
21:20 1018 30.06 847 25.01 16.7 62 52 6.9 44.4
21:25 1018 30.06 847 25.01 16.4 61.6 54 7.1 44.8
21:30 1018 30.06 847 25.01 16.5 61.6 54 7.1 44.8
21:35 1018 30.06 847 25.01 16.5 61.7 53 7 44.7
21:40 1018 30.06 847 25.01 16.4 61.5 54 7 44.7
21:45 1018 30.06 847 25.01 16.3 61.4 53 6.9 44.4
21:50 1018 30.06 847 25.01 16.5 61.6 53 6.9 44.5
21:55 1018 30.06 847 25.01 16.4 61.5 54 7.1 44.7
22:00 1018 30.06 847 25.01 16.2 61.1 54 6.9 44.5
22:05 1018 30.06 847 25.01 16.3 61.3 52 6.6 43.9
22:10 1018 30.06 847 25.01 16.5 61.6 52 6.6 43.8
22:15 1018 30.06 848 25.04 16.5 61.8 51 6.6 43.8
22:20 1018 30.06 848 25.04 16.5 61.7 51 6.5 43.8
22:25 1018 30.06 848 25.04 16.4 61.6 51 6.5 43.7
22:30 1018 30.06 847 25.01 16.3 61.4 52 6.5 43.7
22:35 1018 30.06 847 25.01 16.3 61.4 52 6.6 43.9
22:40 1018 30.06 848 25.04 16.2 61.2 53 6.6 43.9
22:45 1018 30.06 848 25.04 16.1 61 53 6.7 44.1
22:50 1018 30.06 848 25.04 16.2 61.1 54 6.9 44.5
22:55 1018 30.06 848 25.04 16.2 61.1 55 7.2 44.9
23:00 1018 30.06 848 25.04 16.2 61.2 55 7.3 45.2
23:05 1019 30.09 848 25.04 16.2 61.1 56 7.4 45.4
23:10 1019 30.09 848 25.04 16.2 61.1 56 7.6 45.6
23:15 1019 30.09 848 25.04 16 60.9 57 7.7 45.8
23:20 1019 30.09 848 25.04 15.9 60.6 58 7.6 45.7
23:25 1019 30.09 848 25.04 15.9 60.7 57 7.6 45.6
23:30 1019 30.09 848 25.04 15.9 60.7 56 7.3 45.1
23:35 1019 30.09 848 25.04 15.9 60.6 56 7.3 45.2
23:40 1019 30.09 848 25.04 15.8 60.4 56 7.1 44.9
23:45 1019 30.09 848 25.04 15.8 60.4 56 7.2 44.9
23:50 1019 30.09 848 25.04 15.7 60.3 56 7.1 44.8
23:55 1019 30.09 848 25.04 15.6 60.1 56 7 44.6
24:00 1019 30.09 848 25.04 15.6 60 56 7 44.5